createdAt,value
2022-10-22T00:00:55.817Z,13.31
2022-10-22T00:03:22.361Z,13.32
2022-10-22T00:05:48.821Z,13.29
2022-10-22T00:08:15.240Z,13.31
2022-10-22T00:10:41.892Z,13.32
2022-10-22T00:13:08.463Z,13.32
2022-10-22T00:15:34.875Z,13.29
2022-10-22T00:18:01.355Z,13.30
2022-10-22T00:20:27.877Z,13.30
2022-10-22T00:22:54.310Z,13.29
2022-10-22T00:25:20.744Z,13.29
2022-10-22T00:27:47.237Z,13.34
2022-10-22T00:30:13.972Z,13.35
2022-10-22T00:32:40.620Z,13.35
2022-10-22T00:35:07.315Z,13.33
2022-10-22T00:37:33.749Z,13.27
2022-10-22T00:40:00.180Z,13.27
2022-10-22T00:42:30.180Z,13.26
2022-10-22T00:45:08.462Z,13.28
2022-10-22T00:47:36.783Z,13.29
2022-10-22T00:50:19.952Z,13.28
2022-10-22T00:52:47.040Z,13.31
2022-10-22T00:55:15.299Z,13.30
2022-10-22T00:57:42.602Z,13.35
2022-10-22T01:00:09.918Z,13.36
2022-10-22T01:02:36.371Z,13.36
2022-10-22T01:05:03.167Z,13.35
2022-10-22T01:07:29.661Z,13.36
2022-10-22T01:10:22.446Z,13.39
2022-10-22T01:13:09.344Z,13.42
2022-10-22T01:15:59.952Z,13.42
2022-10-22T01:18:43.178Z,13.45
2022-10-22T01:21:31.172Z,13.49
2022-10-22T01:24:15.683Z,13.49
2022-10-22T01:27:06.947Z,13.51
2022-10-22T01:29:38.365Z,13.52
2022-10-22T01:32:32.831Z,13.53
2022-10-22T01:35:04.520Z,13.53
2022-10-22T01:37:34.759Z,13.55
2022-10-22T01:40:02.288Z,13.54
2022-10-22T01:42:29.184Z,13.55
2022-10-22T01:44:55.672Z,13.56
2022-10-22T01:47:40.602Z,13.57
2022-10-22T01:50:15.466Z,13.58
2022-10-22T01:53:17.319Z,13.58
2022-10-22T01:56:08.563Z,13.55
2022-10-22T01:58:39.743Z,13.54
2022-10-22T02:01:34.423Z,13.55
2022-10-22T02:04:28.488Z,13.54
2022-10-22T02:07:01.415Z,13.55
2022-10-22T02:09:30.943Z,13.57
2022-10-22T02:12:00.771Z,13.57
2022-10-22T02:14:31.340Z,13.56
2022-10-22T02:16:59.611Z,13.57
2022-10-22T02:19:30.687Z,13.57
2022-10-22T02:21:57.143Z,13.55
2022-10-22T02:24:24.214Z,13.56
2022-10-22T02:27:05.264Z,13.54
2022-10-22T02:29:40.207Z,13.55
2022-10-22T02:32:10.030Z,13.56
2022-10-22T02:34:36.433Z,13.56
2022-10-22T02:37:04.230Z,13.55
2022-10-22T02:39:32.285Z,13.56
2022-10-22T02:42:00.551Z,13.58
2022-10-22T02:44:26.950Z,13.56
2022-10-22T02:46:53.375Z,13.60
2022-10-22T02:49:19.755Z,13.58
2022-10-22T02:51:46.844Z,13.58
2022-10-22T02:54:13.230Z,13.60
2022-10-22T02:56:39.700Z,13.62
2022-10-22T02:59:06.226Z,13.60
2022-10-22T03:01:32.634Z,13.60
2022-10-22T03:03:59.105Z,13.58
2022-10-22T03:08:57.222Z,13.56
2022-10-22T03:11:23.680Z,13.54
2022-10-22T03:13:50.108Z,13.54
2022-10-22T03:16:16.587Z,13.54
2022-10-22T03:18:42.976Z,13.52
2022-10-22T03:21:31.768Z,13.49
2022-10-22T03:23:59.625Z,13.45
2022-10-22T03:26:26.342Z,13.43
2022-10-22T03:28:54.013Z,13.41
2022-10-22T03:31:20.456Z,13.38
2022-10-22T03:33:46.841Z,13.37
2022-10-22T03:36:13.366Z,13.35
2022-10-22T03:38:40.935Z,13.37
2022-10-22T03:41:07.731Z,13.35
2022-10-22T03:43:35.771Z,13.34
2022-10-22T03:46:02.215Z,13.34
2022-10-22T03:48:28.657Z,13.30
2022-10-22T03:50:55.103Z,13.29
2022-10-22T03:53:21.532Z,13.29
2022-10-22T03:55:47.938Z,13.27
2022-10-22T03:58:14.575Z,13.27
2022-10-22T04:00:41.023Z,13.29
2022-10-22T04:03:07.510Z,13.28
2022-10-22T04:05:34.188Z,13.27
2022-10-22T04:08:00.635Z,13.28
2022-10-22T04:10:27.036Z,13.27
2022-10-22T04:12:53.499Z,13.25
2022-10-22T04:15:19.902Z,13.23
2022-10-22T04:17:46.351Z,13.20
2022-10-22T04:20:12.797Z,13.17
2022-10-22T04:22:39.207Z,13.13
2022-10-22T04:25:05.907Z,13.13
2022-10-22T04:27:33.759Z,13.13
2022-10-22T04:30:00.274Z,13.15
2022-10-22T04:32:27.804Z,13.15
2022-10-22T04:34:54.235Z,13.11
2022-10-22T04:37:20.974Z,13.08
2022-10-22T04:39:47.373Z,13.06
2022-10-22T04:42:14.137Z,13.09
2022-10-22T04:44:40.557Z,13.07
2022-10-22T04:47:06.965Z,13.07
2022-10-22T04:49:33.786Z,13.09
2022-10-22T04:52:00.195Z,13.10
2022-10-22T04:54:29.094Z,13.09
2022-10-22T04:56:58.768Z,13.08
2022-10-22T04:59:25.373Z,13.08
2022-10-22T05:01:51.822Z,13.09
2022-10-22T05:04:19.631Z,13.09
2022-10-22T05:06:46.446Z,13.08
2022-10-22T05:09:16.502Z,13.06
2022-10-22T05:11:46.252Z,13.06
2022-10-22T05:14:13.203Z,13.05
2022-10-22T05:16:39.931Z,13.02
2022-10-22T05:19:07.550Z,13.00
2022-10-22T05:21:34.500Z,13.00
2022-10-22T05:24:01.169Z,12.97
2022-10-22T05:26:28.935Z,12.95
2022-10-22T05:28:56.562Z,12.95
2022-10-22T05:31:23.540Z,12.94
2022-10-22T05:33:50.111Z,12.96
2022-10-22T05:36:19.261Z,12.95
2022-10-22T05:38:45.771Z,12.94
2022-10-22T05:41:17.148Z,12.93
2022-10-22T05:43:44.091Z,12.94
2022-10-22T05:46:13.151Z,12.93
2022-10-22T05:48:39.965Z,12.92
2022-10-22T05:51:12.033Z,12.92
2022-10-22T05:53:41.673Z,12.91
2022-10-22T05:56:13.647Z,12.89
2022-10-22T05:58:40.458Z,12.88
2022-10-22T06:01:12.816Z,12.86
2022-10-22T06:03:40.467Z,12.84
2022-10-22T06:06:28.667Z,12.86
2022-10-22T06:08:56.345Z,12.88
2022-10-22T06:11:23.869Z,12.87
2022-10-22T06:13:51.940Z,12.86
2022-10-22T06:16:18.454Z,12.86
2022-10-22T06:18:44.910Z,12.88
2022-10-22T06:21:13.631Z,12.92
2022-10-22T06:23:41.154Z,12.97
2022-10-22T06:26:08.300Z,12.97
2022-10-22T06:28:35.615Z,12.99
2022-10-22T06:31:03.508Z,13.00
2022-10-22T06:33:32.250Z,12.98
2022-10-22T06:36:07.800Z,13.00
2022-10-22T06:38:34.560Z,13.04
2022-10-22T06:41:12.455Z,13.06
2022-10-22T06:43:39.223Z,13.08
2022-10-22T06:46:08.718Z,13.07
2022-10-22T06:48:37.825Z,13.09
2022-10-22T06:51:07.860Z,13.08
2022-10-22T06:53:35.743Z,13.10
2022-10-22T06:56:06.958Z,13.13
2022-10-22T06:58:33.496Z,13.14
2022-10-22T07:01:11.715Z,13.16
2022-10-22T07:03:39.742Z,13.21
2022-10-22T07:06:09.249Z,13.22
2022-10-22T07:08:36.123Z,13.24
2022-10-22T07:11:20.777Z,13.29
2022-10-22T07:13:48.453Z,13.36
2022-10-22T07:16:16.601Z,13.41
2022-10-22T07:18:43.839Z,13.44
2022-10-22T07:21:11.818Z,13.50
2022-10-22T07:23:38.720Z,13.59
2022-10-22T07:26:07.435Z,13.64
2022-10-22T07:28:35.547Z,13.70
2022-10-22T07:31:02.423Z,13.74
2022-10-22T07:33:28.843Z,13.78
2022-10-22T07:35:59.898Z,13.82
2022-10-22T07:38:26.874Z,13.82
2022-10-22T07:40:53.291Z,13.90
2022-10-22T07:43:19.902Z,13.86
2022-10-22T07:45:46.797Z,13.88
2022-10-22T07:48:13.222Z,13.89
2022-10-22T07:50:39.767Z,13.89
2022-10-22T07:53:06.159Z,13.92
2022-10-22T07:55:33.476Z,13.97
2022-10-22T07:58:00.059Z,14.00
2022-10-22T08:00:26.661Z,14.05
2022-10-22T08:02:53.120Z,14.08
2022-10-22T08:05:19.761Z,14.08
2022-10-22T08:07:46.282Z,14.07
2022-10-22T08:10:13.414Z,14.09
2022-10-22T08:12:41.144Z,14.12
2022-10-22T08:15:08.489Z,14.17
2022-10-22T08:17:34.991Z,14.18
2022-10-22T08:20:01.480Z,14.20
2022-10-22T08:22:27.963Z,14.20
2022-10-22T08:24:54.416Z,14.21
2022-10-22T08:27:20.943Z,14.20
2022-10-22T08:29:47.361Z,14.17
2022-10-22T08:32:14.334Z,14.15
2022-10-22T08:34:40.844Z,14.17
2022-10-22T08:37:08.569Z,14.15
2022-10-22T08:39:35.502Z,14.20
2022-10-22T08:42:35.805Z,14.22
2022-10-22T08:45:31.024Z,14.26
2022-10-22T08:48:09.967Z,14.25
2022-10-22T08:50:43.839Z,14.27
2022-10-22T08:53:17.375Z,14.30
2022-10-22T08:55:45.571Z,14.32
2022-10-22T08:58:24.168Z,14.35
2022-10-22T09:01:09.645Z,14.39
2022-10-22T09:03:39.884Z,14.43
2022-10-22T09:06:22.792Z,14.49
2022-10-22T09:08:50.174Z,14.55
2022-10-22T09:11:38.264Z,14.61
2022-10-22T09:14:05.261Z,14.65
2022-10-22T09:16:53.563Z,14.67
2022-10-22T09:19:37.972Z,14.70
2022-10-22T09:22:27.175Z,14.71
2022-10-22T09:25:09.935Z,14.76
2022-10-22T09:27:36.321Z,14.81
2022-10-22T09:30:03.610Z,14.81
2022-10-22T09:32:32.033Z,14.80
2022-10-22T09:34:58.675Z,14.80
2022-10-22T09:37:29.474Z,14.82
2022-10-22T09:39:58.908Z,14.85
2022-10-22T09:42:25.624Z,14.84
2022-10-22T09:44:58.517Z,14.84
2022-10-22T09:48:00.685Z,14.84
2022-10-22T09:50:29.003Z,14.88
2022-10-22T09:53:11.695Z,14.87
2022-10-22T09:55:42.127Z,14.89
2022-10-22T09:58:12.645Z,14.91
2022-10-22T10:00:41.626Z,14.90
2022-10-22T10:03:17.887Z,14.94
2022-10-22T10:05:48.770Z,14.96
2022-10-22T10:08:17.564Z,14.99
2022-10-22T10:10:52.634Z,15.02
2022-10-22T10:13:38.634Z,15.05
2022-10-22T10:16:23.863Z,15.13
2022-10-22T10:19:16.901Z,15.13
2022-10-22T10:21:49.223Z,15.13
2022-10-22T10:24:27.734Z,15.16
2022-10-22T10:27:05.221Z,15.21
2022-10-22T10:29:46.202Z,15.19
2022-10-22T10:32:52.969Z,15.21
2022-10-22T10:35:30.874Z,15.28
2022-10-22T10:38:06.578Z,15.31
2022-10-22T10:40:50.350Z,15.36
2022-10-22T10:43:51.226Z,15.39
2022-10-22T10:46:44.163Z,15.43
2022-10-22T10:49:26.851Z,15.44
2022-10-22T10:52:21.385Z,15.50
2022-10-22T10:55:05.942Z,15.55
2022-10-22T10:57:38.728Z,15.58
2022-10-22T11:00:40.129Z,15.58
2022-10-22T11:03:39.709Z,15.56
2022-10-22T11:06:14.601Z,15.55
2022-10-22T11:08:45.852Z,15.54
2022-10-22T11:11:18.271Z,15.47
2022-10-22T11:13:53.475Z,15.44
2022-10-22T11:16:42.902Z,15.38
2022-10-22T11:19:23.196Z,15.41
2022-10-22T11:22:08.451Z,15.40
2022-10-22T11:24:56.808Z,15.40
2022-10-22T11:27:54.085Z,15.36
2022-10-22T11:30:23.098Z,15.37
2022-10-22T11:32:56.603Z,15.35
2022-10-22T11:35:33.990Z,15.36
2022-10-22T11:38:02.641Z,15.36
2022-10-22T11:40:28.994Z,15.31
2022-10-22T11:42:59.007Z,15.29
2022-10-22T11:45:25.332Z,15.30
2022-10-22T11:47:53.506Z,15.34
2022-10-22T11:50:22.922Z,15.36
2022-10-22T11:53:03.138Z,15.45
2022-10-22T11:55:55.508Z,15.50
2022-10-22T11:58:27.914Z,15.52
2022-10-22T12:01:14.528Z,15.54
2022-10-22T12:03:50.316Z,15.62
2022-10-22T12:06:20.958Z,15.69
2022-10-22T12:08:50.581Z,15.76
2022-10-22T12:11:20.046Z,15.80
2022-10-22T12:14:03.844Z,15.82
2022-10-22T12:16:54.723Z,15.87
2022-10-22T12:19:22.720Z,15.91
2022-10-22T12:21:58.530Z,15.93
2022-10-22T12:24:29.292Z,15.91
2022-10-22T12:26:55.776Z,15.88
2022-10-22T12:29:23.687Z,15.89
2022-10-22T12:31:50.465Z,15.85
2022-10-22T12:34:21.462Z,15.76
2022-10-22T12:36:52.187Z,15.76
2022-10-22T12:39:21.110Z,15.79
2022-10-22T12:41:47.840Z,15.74
2022-10-22T12:44:17.376Z,15.74
2022-10-22T12:46:46.989Z,15.73
2022-10-22T12:49:21.222Z,15.79
2022-10-22T12:51:48.711Z,15.76
2022-10-22T12:54:26.973Z,15.79
2022-10-22T12:56:55.495Z,15.74
2022-10-22T12:59:21.933Z,15.67
2022-10-22T13:01:50.444Z,15.77
2022-10-22T13:04:16.804Z,15.79
2022-10-22T13:06:45.429Z,15.85
2022-10-22T13:09:25.193Z,15.90
2022-10-22T13:12:04.733Z,15.90
2022-10-22T13:14:38.052Z,15.88
2022-10-22T13:17:16.945Z,15.93
2022-10-22T13:19:52.632Z,15.94
2022-10-22T13:22:32.546Z,15.94
2022-10-22T13:25:06.396Z,15.92
2022-10-22T13:27:32.963Z,15.91
2022-10-22T13:30:10.430Z,15.94
2022-10-22T13:32:36.984Z,16.10
2022-10-22T13:35:03.999Z,16.08
2022-10-22T13:37:34.019Z,16.16
2022-10-22T13:40:00.478Z,16.20
2022-10-22T13:42:26.999Z,16.15
2022-10-22T13:44:53.415Z,16.10
2022-10-22T13:47:28.924Z,16.08
2022-10-22T13:49:59.933Z,16.03
2022-10-22T13:52:49.561Z,16.01
2022-10-22T13:55:29.048Z,16.00
2022-10-22T13:57:59.806Z,15.97
2022-10-22T14:00:27.475Z,16.02
2022-10-22T14:02:58.026Z,15.98
2022-10-22T14:05:24.590Z,15.93
2022-10-22T14:07:54.166Z,15.89
2022-10-22T14:10:25.214Z,15.82
2022-10-22T14:12:55.166Z,15.74
2022-10-22T14:15:24.271Z,15.69
2022-10-22T14:17:56.067Z,15.69
2022-10-22T14:20:26.268Z,15.69
2022-10-22T14:22:52.878Z,15.67
2022-10-22T14:25:25.395Z,15.66
2022-10-22T14:27:52.095Z,15.66
2022-10-22T14:30:25.857Z,15.67
2022-10-22T14:32:52.810Z,15.65
2022-10-22T14:35:21.962Z,15.74
2022-10-22T14:37:48.479Z,15.72
2022-10-22T14:40:17.069Z,15.75
2022-10-22T14:42:45.222Z,15.75
2022-10-22T14:45:21.689Z,15.75
2022-10-22T14:47:49.937Z,15.86
2022-10-22T14:50:17.177Z,15.89
2022-10-22T14:52:44.057Z,15.88
2022-10-22T14:55:12.635Z,15.90
2022-10-22T14:57:39.923Z,15.90
2022-10-22T15:00:09.224Z,15.97
2022-10-22T15:02:35.713Z,15.99
2022-10-22T15:05:02.470Z,15.92
2022-10-22T15:07:28.902Z,15.89
2022-10-22T15:09:55.334Z,15.87
2022-10-22T15:12:21.777Z,15.85
2022-10-22T15:14:48.514Z,15.82
2022-10-22T15:17:16.100Z,15.79
2022-10-22T15:19:45.609Z,15.75
2022-10-22T15:22:13.648Z,15.70
2022-10-22T15:24:43.705Z,15.67
2022-10-22T15:27:13.639Z,15.62
2022-10-22T15:29:41.517Z,15.58
2022-10-22T15:32:11.838Z,15.49
2022-10-22T15:34:39.724Z,15.44
2022-10-22T15:37:08.441Z,15.39
2022-10-22T15:39:35.659Z,15.33
2022-10-22T15:42:02.066Z,15.28
2022-10-22T15:44:31.210Z,15.25
2022-10-22T15:46:58.500Z,15.20
2022-10-22T15:49:27.682Z,15.18
2022-10-22T15:51:54.954Z,15.12
2022-10-22T15:54:29.575Z,15.09
2022-10-22T15:56:58.168Z,15.04
2022-10-22T15:59:24.763Z,15.03
2022-10-22T16:01:51.461Z,15.01
2022-10-22T16:04:18.137Z,14.99
2022-10-22T16:06:47.240Z,14.98
2022-10-22T16:09:19.900Z,14.95
2022-10-22T16:11:46.723Z,14.96
2022-10-22T16:14:15.791Z,14.94
2022-10-22T16:16:45.102Z,14.94
2022-10-22T16:19:13.759Z,14.92
2022-10-22T16:21:40.918Z,14.92
2022-10-22T16:24:08.556Z,14.90
2022-10-22T16:26:35.849Z,14.86
2022-10-22T16:29:02.432Z,14.82
2022-10-22T16:31:28.925Z,14.81
2022-10-22T16:33:55.422Z,14.80
2022-10-22T16:36:22.784Z,14.75
2022-10-22T16:38:49.669Z,14.70
2022-10-22T16:41:21.950Z,14.64
2022-10-22T16:43:50.477Z,14.59
2022-10-22T16:46:18.540Z,14.54
2022-10-22T16:48:51.676Z,14.47
2022-10-22T16:51:21.110Z,14.45
2022-10-22T16:53:48.051Z,14.48
2022-10-22T16:56:16.314Z,14.44
2022-10-22T16:58:52.120Z,14.43
2022-10-22T17:01:21.022Z,14.34
2022-10-22T17:03:47.522Z,14.31
2022-10-22T17:06:14.804Z,14.18
2022-10-22T17:08:42.117Z,14.13
2022-10-22T17:11:18.492Z,14.07
2022-10-22T17:13:46.796Z,14.06
2022-10-22T17:16:15.573Z,14.06
2022-10-22T17:18:43.832Z,14.05
2022-10-22T17:21:11.108Z,14.07
2022-10-22T17:23:38.283Z,14.01
2022-10-22T17:26:07.555Z,13.90
2022-10-22T17:28:36.172Z,13.91
2022-10-22T17:31:16.391Z,13.85
2022-10-22T17:33:43.398Z,13.73
2022-10-22T17:36:12.654Z,13.69
2022-10-22T17:38:41.237Z,13.67
2022-10-22T17:41:12.514Z,13.69
2022-10-22T17:43:41.206Z,13.71
2022-10-22T17:46:13.402Z,13.74
2022-10-22T17:48:40.110Z,13.63
2022-10-22T17:51:11.607Z,13.51
2022-10-22T17:53:42.846Z,13.55
2022-10-22T17:56:10.294Z,13.60
2022-10-22T17:58:37.309Z,13.52
2022-10-22T18:01:04.777Z,13.48
2022-10-22T18:03:32.531Z,13.44
2022-10-22T18:06:09.941Z,13.44
2022-10-22T18:08:36.679Z,13.39
2022-10-22T18:11:08.366Z,13.41
2022-10-22T18:13:34.946Z,13.33
2022-10-22T18:16:01.778Z,13.32
2022-10-22T18:18:28.736Z,13.25
2022-10-22T18:20:55.177Z,13.20
2022-10-22T18:23:21.587Z,13.18
2022-10-22T18:25:48.698Z,13.22
2022-10-22T18:28:16.538Z,13.17
2022-10-22T18:30:44.474Z,13.16
2022-10-22T18:33:12.977Z,13.06
2022-10-22T18:35:41.257Z,12.99
2022-10-22T18:38:08.537Z,12.95
2022-10-22T18:40:36.021Z,12.97
2022-10-22T18:43:03.490Z,12.99
2022-10-22T18:45:30.117Z,12.95
2022-10-22T18:47:56.553Z,12.91
2022-10-22T18:50:22.981Z,12.89
2022-10-22T18:52:49.432Z,12.87
2022-10-22T18:55:15.954Z,12.91
2022-10-22T18:57:42.364Z,12.84
2022-10-22T19:00:09.403Z,12.78
2022-10-22T19:02:37.576Z,12.84
2022-10-22T19:05:04.235Z,12.75
2022-10-22T19:07:31.723Z,12.62
2022-10-22T19:09:59.021Z,12.66
2022-10-22T19:12:25.443Z,12.68
2022-10-22T19:14:52.923Z,12.54
2022-10-22T19:17:19.365Z,12.53
2022-10-22T19:19:45.775Z,12.52
2022-10-22T19:22:12.840Z,12.50
2022-10-22T19:24:39.408Z,12.39
2022-10-22T19:27:08.310Z,12.40
2022-10-22T19:29:34.883Z,12.46
2022-10-22T19:32:01.342Z,12.43
2022-10-22T19:34:27.811Z,12.39
2022-10-22T19:36:54.285Z,12.36
2022-10-22T19:39:20.822Z,12.42
2022-10-22T19:41:47.281Z,12.34
2022-10-22T19:44:13.936Z,12.32
2022-10-22T19:46:40.434Z,12.32
2022-10-22T19:49:06.983Z,12.39
2022-10-22T19:51:34.383Z,12.37
2022-10-22T19:54:04.954Z,12.37
2022-10-22T19:56:33.076Z,12.32
2022-10-22T19:59:00.016Z,12.28
2022-10-22T20:01:26.752Z,12.31
2022-10-22T20:03:53.636Z,12.33
2022-10-22T20:06:21.732Z,12.29
2022-10-22T20:08:49.992Z,12.27
2022-10-22T20:11:24.594Z,12.25
2022-10-22T20:13:52.413Z,12.28
2022-10-22T20:16:24.225Z,12.29
2022-10-22T20:18:51.672Z,12.30
2022-10-22T20:21:19.297Z,12.37
2022-10-22T20:23:47.365Z,12.38
2022-10-22T20:26:14.129Z,12.35
2022-10-22T20:28:40.561Z,12.38
2022-10-22T20:31:16.248Z,12.35
2022-10-22T20:33:42.880Z,12.41
2022-10-22T20:36:14.132Z,12.41
2022-10-22T20:38:40.524Z,12.42
2022-10-22T20:41:11.792Z,12.44
2022-10-22T20:43:38.266Z,12.41
2022-10-22T20:46:04.865Z,12.44
2022-10-22T20:48:31.822Z,12.45
2022-10-22T20:50:59.846Z,12.48
2022-10-22T20:53:27.121Z,12.46
2022-10-22T20:55:57.771Z,12.41
2022-10-22T20:58:26.843Z,12.41
2022-10-22T21:00:54.695Z,12.37
2022-10-22T21:03:21.176Z,12.34
2022-10-22T21:05:47.717Z,12.31
2022-10-22T21:08:17.397Z,12.28
2022-10-22T21:10:46.303Z,12.26
2022-10-22T21:13:13.920Z,12.32
2022-10-22T21:15:40.715Z,12.37
2022-10-22T21:18:08.138Z,12.44
2022-10-22T21:20:34.570Z,12.54
2022-10-22T21:23:00.999Z,12.57
2022-10-22T21:25:27.520Z,12.59
2022-10-22T21:27:53.905Z,12.59
2022-10-22T21:30:20.332Z,12.63
2022-10-22T21:32:46.738Z,12.67
2022-10-22T21:35:13.148Z,12.70
2022-10-22T21:37:39.825Z,12.70
2022-10-22T21:40:07.184Z,12.72
2022-10-22T21:42:33.987Z,12.75
2022-10-22T21:45:00.460Z,12.76
2022-10-22T21:47:26.976Z,12.76
2022-10-22T21:49:53.795Z,12.73
2022-10-22T21:52:20.208Z,12.71
2022-10-22T21:54:46.727Z,12.70
2022-10-22T21:57:13.197Z,12.68
2022-10-22T21:59:39.588Z,12.64
2022-10-22T22:02:06.178Z,12.60
2022-10-22T22:04:32.976Z,12.58
2022-10-22T22:06:59.417Z,12.59
2022-10-22T22:09:25.841Z,12.61
2022-10-22T22:11:52.266Z,12.63
2022-10-22T22:14:18.668Z,12.65
2022-10-22T22:16:45.108Z,12.63
2022-10-22T22:19:12.370Z,12.61
2022-10-22T22:21:40.579Z,12.60
2022-10-22T22:24:08.848Z,12.57
2022-10-22T22:26:36.367Z,12.53
2022-10-22T22:29:03.689Z,12.46
2022-10-22T22:31:32.851Z,12.43
2022-10-22T22:34:05.879Z,12.41
2022-10-22T22:36:35.084Z,12.37
2022-10-22T22:39:02.012Z,12.39
2022-10-22T22:41:28.519Z,12.39
2022-10-22T22:46:26.549Z,12.32
2022-10-22T22:48:52.994Z,12.32
2022-10-22T22:51:19.590Z,12.27
2022-10-22T22:53:46.678Z,12.28
2022-10-22T22:56:17.532Z,12.28
2022-10-22T22:58:44.721Z,12.25
2022-10-22T23:01:18.894Z,12.24
2022-10-22T23:03:53.285Z,12.26
2022-10-22T23:06:19.734Z,12.29
2022-10-22T23:08:52.170Z,12.31
2022-10-22T23:11:19.983Z,12.34
2022-10-22T23:13:46.993Z,12.32
2022-10-22T23:16:19.412Z,12.32
2022-10-22T23:18:47.767Z,12.28
2022-10-22T23:21:17.368Z,12.24
2022-10-22T23:23:49.505Z,12.21
2022-10-22T23:26:20.537Z,12.19
2022-10-22T23:28:47.213Z,12.19
2022-10-22T23:31:16.540Z,12.17
2022-10-22T23:33:43.855Z,12.14
2022-10-22T23:36:11.417Z,12.17
2022-10-22T23:38:39.376Z,12.11
2022-10-22T23:41:06.321Z,12.12
2022-10-22T23:43:36.109Z,12.12
2022-10-22T23:46:06.627Z,12.12
2022-10-22T23:48:33.279Z,12.10
2022-10-22T23:51:08.483Z,12.07
2022-10-22T23:53:35.067Z,12.02
2022-10-22T23:56:16.838Z,11.97
2022-10-22T23:58:44.443Z,11.99
